createdAt,value
2018-11-23T00:01:16.261Z,5.60
2018-11-23T00:06:19.929Z,5.70
2018-11-23T00:11:25.450Z,5.60
2018-11-23T00:16:29.021Z,5.70
2018-11-23T00:21:32.600Z,5.70
2018-11-23T00:26:36.211Z,5.60
2018-11-23T00:31:39.783Z,5.60
2018-11-23T00:36:43.541Z,5.70
2018-11-23T00:41:47.166Z,5.70
2018-11-23T00:46:50.798Z,5.70
2018-11-23T00:51:54.625Z,5.70
2018-11-23T00:56:58.242Z,5.60
2018-11-23T01:02:03.488Z,5.60
2018-11-23T01:07:07.085Z,5.50
2018-11-23T01:12:10.729Z,5.40
2018-11-23T01:17:14.311Z,5.30
2018-11-23T01:22:17.877Z,5.30
2018-11-23T01:27:22.370Z,5.20
2018-11-23T01:32:26.909Z,5.20
2018-11-23T01:37:31.241Z,5.20
2018-11-23T01:42:36.786Z,5.20
2018-11-23T01:47:40.639Z,5.40
2018-11-23T01:52:45.732Z,5.30
2018-11-23T01:57:49.389Z,5.30
2018-11-23T02:02:54.012Z,5.20
2018-11-23T02:07:57.906Z,5.30
2018-11-23T02:13:01.461Z,5.30
2018-11-23T02:18:05.117Z,5.30
2018-11-23T02:23:10.573Z,5.20
2018-11-23T02:28:14.336Z,5.30
2018-11-23T02:33:17.945Z,5.20
2018-11-23T02:38:21.556Z,5.20
2018-11-23T02:43:25.325Z,5.20
2018-11-23T02:48:29.344Z,5.20
2018-11-23T02:53:34.989Z,5.30
2018-11-23T02:58:38.775Z,5.30
2018-11-23T03:03:43.006Z,5.30
2018-11-23T03:08:47.788Z,5.40
2018-11-23T03:13:51.625Z,5.40
2018-11-23T03:18:55.258Z,5.40
2018-11-23T03:23:58.862Z,5.40
2018-11-23T03:29:02.885Z,5.50
2018-11-23T03:34:07.102Z,5.40
2018-11-23T03:39:12.633Z,5.40
2018-11-23T03:44:16.489Z,5.40
2018-11-23T03:49:35.371Z,5.40
2018-11-23T03:54:39.305Z,5.40
2018-11-23T03:59:42.904Z,5.30
2018-11-23T04:04:46.961Z,5.40
2018-11-23T04:09:51.432Z,5.40
2018-11-23T04:14:55.032Z,5.40
2018-11-23T04:19:58.618Z,5.30
2018-11-23T04:25:02.398Z,5.30
2018-11-23T04:30:09.030Z,5.20
2018-11-23T04:35:14.712Z,5.20
2018-11-23T04:40:19.721Z,5.10
2018-11-23T04:45:24.077Z,5.20
2018-11-23T04:50:27.777Z,5.20
2018-11-23T04:55:31.362Z,5.20
2018-11-23T05:00:35.275Z,5.10
2018-11-23T05:05:38.869Z,5.20
2018-11-23T05:10:42.485Z,5.10
2018-11-23T05:15:46.941Z,5.20
2018-11-23T05:20:50.500Z,5.30
2018-11-23T05:25:54.470Z,5.30
2018-11-23T05:30:58.051Z,5.30
2018-11-23T05:36:01.639Z,5.20
2018-11-23T05:41:05.314Z,5.30
2018-11-23T05:46:09.562Z,5.30
2018-11-23T05:51:13.667Z,5.30
2018-11-23T05:56:23.689Z,5.30
2018-11-23T06:01:27.317Z,5.20
2018-11-23T06:06:30.897Z,5.20
2018-11-23T06:11:34.545Z,5.20
2018-11-23T06:16:39.855Z,5.20
2018-11-23T06:21:43.592Z,5.20
2018-11-23T06:26:47.279Z,5.20
2018-11-23T06:31:50.868Z,5.30
2018-11-23T06:36:54.470Z,5.20
2018-11-23T06:41:58.347Z,5.10
2018-11-23T06:47:02.214Z,5.20
2018-11-23T06:52:05.844Z,5.00
2018-11-23T06:57:09.430Z,5.00
2018-11-23T07:02:14.325Z,5.00
2018-11-23T07:07:17.956Z,5.10
2018-11-23T07:12:22.136Z,5.20
2018-11-23T07:17:25.712Z,5.20
2018-11-23T07:22:29.344Z,5.20
2018-11-23T07:27:32.952Z,5.20
2018-11-23T07:32:38.208Z,5.10
2018-11-23T07:37:41.821Z,5.00
2018-11-23T07:42:46.137Z,5.00
2018-11-23T07:47:50.013Z,5.10
2018-11-23T07:52:53.677Z,5.20
2018-11-23T07:57:57.251Z,5.20
2018-11-23T08:03:00.853Z,5.30
2018-11-23T08:08:05.320Z,5.20
2018-11-23T08:13:08.946Z,5.20
2018-11-23T08:18:12.829Z,5.20
2018-11-23T08:23:16.744Z,5.30
2018-11-23T08:28:20.573Z,5.30
2018-11-23T08:33:24.586Z,5.30
2018-11-23T08:38:28.207Z,5.30
2018-11-23T08:43:31.844Z,5.30
2018-11-23T08:48:35.468Z,5.30
2018-11-23T08:53:39.119Z,5.30
2018-11-23T08:58:43.696Z,5.40
2018-11-23T09:03:47.618Z,5.50
2018-11-23T09:08:51.601Z,5.40
2018-11-23T09:13:55.443Z,5.40
2018-11-23T09:18:59.022Z,5.40
2018-11-23T09:24:03.622Z,5.50
2018-11-23T09:29:07.218Z,5.40
2018-11-23T09:34:11.509Z,5.20
2018-11-23T09:39:15.648Z,5.20
2018-11-23T09:44:19.231Z,5.30
2018-11-23T09:49:22.943Z,5.30
2018-11-23T09:54:26.490Z,5.40
2018-11-23T09:59:30.519Z,5.40
2018-11-23T10:04:35.056Z,5.30
2018-11-23T10:09:38.757Z,5.30
2018-11-23T10:14:42.365Z,5.40
2018-11-23T10:19:46.289Z,5.50
2018-11-23T10:24:50.072Z,5.60
2018-11-23T10:29:55.366Z,5.60
2018-11-23T10:34:57.385Z,5.60
2018-11-23T10:40:01.253Z,5.50
2018-11-23T10:45:06.126Z,5.60
2018-11-23T10:50:12.658Z,5.50
2018-11-23T10:55:18.402Z,5.60
2018-11-23T11:00:28.130Z,5.70
2018-11-23T11:05:37.190Z,5.80
2018-11-23T11:10:42.369Z,5.80
2018-11-23T11:15:46.067Z,5.80
2018-11-23T11:20:50.095Z,5.90
2018-11-23T11:25:57.234Z,5.90
2018-11-23T11:31:00.918Z,6.00
2018-11-23T11:36:05.709Z,5.80
2018-11-23T11:41:09.764Z,6.00
2018-11-23T11:46:13.390Z,5.90
2018-11-23T11:51:17.712Z,5.60
2018-11-23T11:56:23.184Z,5.60
2018-11-23T12:01:27.993Z,5.40
2018-11-23T12:06:32.517Z,5.10
2018-11-23T12:11:36.148Z,5.60
2018-11-23T12:16:41.736Z,5.90
2018-11-23T12:21:45.395Z,5.90
2018-11-23T12:26:54.558Z,5.60
2018-11-23T12:31:58.537Z,5.90
2018-11-23T12:37:02.153Z,6.30
2018-11-23T12:42:06.303Z,6.30
2018-11-23T12:47:12.121Z,6.30
2018-11-23T12:52:15.731Z,6.40
2018-11-23T12:57:19.317Z,6.40
2018-11-23T13:02:25.351Z,6.60
2018-11-23T13:07:29.152Z,6.80
2018-11-23T13:12:32.699Z,6.20
2018-11-23T13:17:36.378Z,6.10
2018-11-23T13:22:40.275Z,5.80
2018-11-23T13:27:44.028Z,5.80
2018-11-23T13:32:47.646Z,5.70
2018-11-23T13:37:51.511Z,5.80
2018-11-23T13:42:56.179Z,5.70
2018-11-23T13:48:00.100Z,5.50
2018-11-23T13:53:05.883Z,5.50
2018-11-23T13:58:09.761Z,5.80
2018-11-23T14:03:17.222Z,5.80
2018-11-23T14:08:21.077Z,5.80
2018-11-23T14:13:24.684Z,6.00
2018-11-23T14:18:28.294Z,6.20
2018-11-23T14:23:32.574Z,6.10
2018-11-23T14:28:36.595Z,6.10
2018-11-23T14:33:40.644Z,5.80
2018-11-23T14:38:44.394Z,5.80
2018-11-23T14:43:48.063Z,5.70
2018-11-23T14:48:51.895Z,5.60
2018-11-23T14:53:55.516Z,5.60
2018-11-23T14:59:01.037Z,5.70
2018-11-23T15:04:07.642Z,5.90
2018-11-23T15:09:14.059Z,6.00
2018-11-23T15:14:17.671Z,6.00
2018-11-23T15:19:21.834Z,6.00
2018-11-23T15:24:28.666Z,6.20
2018-11-23T15:29:32.303Z,6.30
2018-11-23T15:34:35.918Z,6.30
2018-11-23T15:39:39.956Z,6.30
2018-11-23T15:44:43.848Z,6.40
2018-11-23T15:49:47.898Z,6.40
2018-11-23T15:54:51.716Z,6.00
2018-11-23T15:59:55.548Z,6.00
2018-11-23T16:04:59.463Z,6.10
2018-11-23T16:10:03.597Z,6.20
2018-11-23T16:15:08.361Z,6.20
2018-11-23T16:20:15.448Z,6.30
2018-11-23T16:25:19.468Z,6.20
2018-11-23T16:30:24.723Z,6.40
2018-11-23T16:35:32.462Z,6.30
2018-11-23T16:40:38.408Z,6.40
2018-11-23T16:45:44.482Z,6.40
2018-11-23T16:50:48.392Z,6.30
2018-11-23T16:55:52.260Z,6.30
2018-11-23T17:00:56.216Z,6.40
2018-11-23T17:06:00.459Z,6.40
2018-11-23T17:11:04.581Z,6.30
2018-11-23T17:16:08.436Z,6.30
2018-11-23T17:21:12.441Z,6.20
2018-11-23T17:26:16.402Z,6.20
2018-11-23T17:31:20.242Z,6.30
2018-11-23T17:36:24.041Z,6.30
2018-11-23T17:41:27.968Z,6.30
2018-11-23T17:46:32.109Z,6.30
2018-11-23T17:51:36.026Z,6.30
2018-11-23T17:56:39.836Z,6.30
2018-11-23T18:01:43.844Z,6.20
2018-11-23T18:06:48.015Z,6.20
2018-11-23T18:11:51.731Z,6.20
2018-11-23T18:16:55.671Z,6.10
2018-11-23T18:21:59.493Z,6.00
2018-11-23T18:27:03.332Z,5.90
2018-11-23T18:32:07.023Z,5.80
2018-11-23T18:37:10.793Z,5.80
2018-11-23T18:42:15.062Z,5.80
2018-11-23T18:47:19.070Z,5.80
2018-11-23T18:52:29.470Z,5.80
2018-11-23T18:57:33.336Z,5.90
2018-11-23T19:02:36.974Z,5.90
2018-11-23T19:07:40.814Z,5.90
2018-11-23T19:12:44.423Z,5.70
2018-11-23T19:17:50.734Z,5.30
2018-11-23T19:22:55.359Z,4.90
2018-11-23T19:27:58.983Z,4.70
2018-11-23T19:33:04.735Z,4.70
2018-11-23T19:38:08.639Z,4.50
2018-11-23T19:43:12.257Z,4.90
2018-11-23T19:48:15.873Z,5.00
2018-11-23T19:53:19.902Z,4.90
2018-11-23T19:58:23.594Z,5.10
2018-11-23T20:03:27.237Z,5.40
2018-11-23T20:08:30.850Z,5.60
2018-11-23T20:13:34.398Z,5.70
2018-11-23T20:18:38.385Z,5.30
2018-11-23T20:23:42.069Z,5.20
2018-11-23T20:28:45.909Z,5.30
2018-11-23T20:33:49.532Z,5.50
2018-11-23T20:38:53.112Z,5.30
2018-11-23T20:43:56.700Z,5.50
2018-11-23T20:49:00.287Z,5.60
2018-11-23T20:54:04.602Z,5.50
2018-11-23T20:59:08.357Z,5.40
2018-11-23T21:04:11.964Z,5.50
2018-11-23T21:09:15.887Z,5.50
2018-11-23T21:14:20.014Z,5.30
2018-11-23T21:19:24.058Z,5.00
2018-11-23T21:24:27.725Z,4.90
2018-11-23T21:29:31.745Z,4.90
2018-11-23T21:34:35.591Z,5.20
2018-11-23T21:39:39.348Z,5.40
2018-11-23T21:44:43.013Z,5.20
2018-11-23T21:49:46.588Z,5.30
2018-11-23T21:54:50.492Z,5.30
2018-11-23T21:59:54.772Z,5.40
2018-11-23T22:04:59.187Z,5.40
2018-11-23T22:10:03.500Z,5.60
2018-11-23T22:15:12.233Z,5.60
2018-11-23T22:20:18.169Z,5.70
2018-11-23T22:25:23.070Z,5.60
2018-11-23T22:30:29.295Z,5.70
2018-11-23T22:35:32.950Z,5.80
2018-11-23T22:40:36.546Z,5.70
2018-11-23T22:45:40.553Z,5.70
2018-11-23T22:50:44.122Z,5.70
2018-11-23T22:55:47.871Z,5.90
2018-11-23T23:00:55.727Z,5.90
2018-11-23T23:06:00.125Z,6.10
2018-11-23T23:11:03.248Z,6.30
2018-11-23T23:16:07.377Z,6.30
2018-11-23T23:21:11.207Z,6.40
2018-11-23T23:26:15.256Z,6.10
2018-11-23T23:31:18.805Z,5.70
2018-11-23T23:36:22.676Z,5.50
2018-11-23T23:41:26.376Z,5.40
2018-11-23T23:46:30.216Z,5.20
2018-11-23T23:51:34.202Z,5.30
2018-11-23T23:56:39.101Z,5.30
